aviador You're here:

ROIG Decoded Metar

ISHIGAKI in JAPAN
Report Time2017-06-22 21:00:00
UTC Time2017-06-22 22:17:36
Flight Rules Old
Wind180° at 06 kt
W.Decomp.*RWY 22: 4.9 kt HW 3.5 kt LCW
W.Rank180° ranks 12
Current wind is below 180° avg. (10.2)
Visibility9999 m
Phenomena:N/A
Clouds:Few 005 Hf
Scattered 008 Hf
Expected CloudBase > 400 ft AGL from Temp-Dew spread
CeilingNone
Temp27°C (ISA +12)
Dew Point26°C (94% RH)
Heat Index31.2°C
QNH1009 hPa
Density Alt1,985 ft
Elevation23 ft
Report Wrong Elevation
Raw Report
METAR ROIG 222100Z 18006KT 9999 FEW005 SCT008 27/26 Q1009=

Extra information for ROIG:More info

Metar Taf Metar & Taf Last 4 Metars F.Rules Stats Wind Profile Meteogram Temp Stats Airport Information Weather charts Add Link Nearby VenuesMetar ALERT Operation Metar Decoded Social comments